sensor_id;sensor_type;location;lat;lon;timestamp;temperature;humidity
46488;DHT22;32202;48.780;9.204;2022-12-29T00:01:21;9.40;84.90
46488;DHT22;32202;48.780;9.204;2022-12-29T00:03:47;9.40;84.20
46488;DHT22;32202;48.780;9.204;2022-12-29T00:06:14;9.40;84.70
46488;DHT22;32202;48.780;9.204;2022-12-29T00:08:40;9.40;84.30
46488;DHT22;32202;48.780;9.204;2022-12-29T00:11:10;9.50;84.30
46488;DHT22;32202;48.780;9.204;2022-12-29T00:13:37;9.50;84.30
46488;DHT22;32202;48.780;9.204;2022-12-29T00:16:21;9.50;84.10
46488;DHT22;32202;48.780;9.204;2022-12-29T00:18:47;9.60;84.00
46488;DHT22;32202;48.780;9.204;2022-12-29T00:21:18;9.60;83.90
46488;DHT22;32202;48.780;9.204;2022-12-29T00:24:02;9.70;83.30
46488;DHT22;32202;48.780;9.204;2022-12-29T00:26:58;9.60;83.00
46488;DHT22;32202;48.780;9.204;2022-12-29T00:29:42;9.70;83.10
46488;DHT22;32202;48.780;9.204;2022-12-29T00:32:26;9.70;82.50
46488;DHT22;32202;48.780;9.204;2022-12-29T00:35:13;9.80;82.10
46488;DHT22;32202;48.780;9.204;2022-12-29T00:37:43;9.80;81.80
46488;DHT22;32202;48.780;9.204;2022-12-29T00:40:29;9.80;81.50
46488;DHT22;32202;48.780;9.204;2022-12-29T00:43:14;9.90;81.30
46488;DHT22;32202;48.780;9.204;2022-12-29T00:45:57;9.90;80.70
46488;DHT22;32202;48.780;9.204;2022-12-29T00:48:23;10.00;80.60
46488;DHT22;32202;48.780;9.204;2022-12-29T00:51:08;10.10;80.10
46488;DHT22;32202;48.780;9.204;2022-12-29T00:53:34;10.20;79.60
46488;DHT22;32202;48.780;9.204;2022-12-29T00:56:00;10.30;79.30
46488;DHT22;32202;48.780;9.204;2022-12-29T00:58:30;10.40;78.90
46488;DHT22;32202;48.780;9.204;2022-12-29T01:01:06;10.40;78.40
46488;DHT22;32202;48.780;9.204;2022-12-29T01:03:33;10.50;77.90
46488;DHT22;32202;48.780;9.204;2022-12-29T01:06:04;10.50;77.80
46488;DHT22;32202;48.780;9.204;2022-12-29T01:08:30;10.50;77.50
46488;DHT22;32202;48.780;9.204;2022-12-29T01:11:08;10.50;77.50
46488;DHT22;32202;48.780;9.204;2022-12-29T01:13:34;10.60;77.20
46488;DHT22;32202;48.780;9.204;2022-12-29T01:16:00;10.50;77.40
46488;DHT22;32202;48.780;9.204;2022-12-29T01:18:26;10.60;77.20
46488;DHT22;32202;48.780;9.204;2022-12-29T01:21:03;10.60;77.10
46488;DHT22;32202;48.780;9.204;2022-12-29T01:23:29;10.70;76.80
46488;DHT22;32202;48.780;9.204;2022-12-29T01:25:55;10.60;76.90
46488;DHT22;32202;48.780;9.204;2022-12-29T01:28:21;10.70;76.50
46488;DHT22;32202;48.780;9.204;2022-12-29T01:30:46;10.70;76.50
46488;DHT22;32202;48.780;9.204;2022-12-29T01:33:12;10.70;76.40
46488;DHT22;32202;48.780;9.204;2022-12-29T01:35:37;10.80;76.30
46488;DHT22;32202;48.780;9.204;2022-12-29T01:38:03;10.80;76.00
46488;DHT22;32202;48.780;9.204;2022-12-29T01:40:28;10.80;76.20
46488;DHT22;32202;48.780;9.204;2022-12-29T01:42:54;10.80;76.20
46488;DHT22;32202;48.780;9.204;2022-12-29T01:45:19;10.80;76.20
46488;DHT22;32202;48.780;9.204;2022-12-29T01:47:48;10.80;76.10
46488;DHT22;32202;48.780;9.204;2022-12-29T01:50:28;10.80;76.20
46488;DHT22;32202;48.780;9.204;2022-12-29T01:53:02;10.70;76.20
46488;DHT22;32202;48.780;9.204;2022-12-29T01:55:34;10.80;76.20
46488;DHT22;32202;48.780;9.204;2022-12-29T01:58:04;10.80;76.20
46488;DHT22;32202;48.780;9.204;2022-12-29T02:00:32;10.80;76.00
46488;DHT22;32202;48.780;9.204;2022-12-29T02:02:57;10.80;75.90
46488;DHT22;32202;48.780;9.204;2022-12-29T02:05:48;10.80;75.90
46488;DHT22;32202;48.780;9.204;2022-12-29T02:08:15;10.80;75.80
46488;DHT22;32202;48.780;9.204;2022-12-29T02:10:42;10.80;75.90
46488;DHT22;32202;48.780;9.204;2022-12-29T02:13:08;10.80;75.90
46488;DHT22;32202;48.780;9.204;2022-12-29T02:27:33;10.70;76.10
46488;DHT22;32202;48.780;9.204;2022-12-29T02:35:32;10.50;76.80
46488;DHT22;32202;48.780;9.204;2022-12-29T02:40:53;10.60;76.60
46488;DHT22;32202;48.780;9.204;2022-12-29T02:46:10;10.70;76.30
46488;DHT22;32202;48.780;9.204;2022-12-29T02:48:45;10.70;76.10
46488;DHT22;32202;48.780;9.204;2022-12-29T02:51:21;10.70;76.00
46488;DHT22;32202;48.780;9.204;2022-12-29T02:53:49;10.80;75.60
46488;DHT22;32202;48.780;9.204;2022-12-29T02:56:34;10.80;75.70
46488;DHT22;32202;48.780;9.204;2022-12-29T02:59:00;10.80;75.70
46488;DHT22;32202;48.780;9.204;2022-12-29T03:07:39;11.00;75.20
46488;DHT22;32202;48.780;9.204;2022-12-29T03:12:41;11.00;75.30
46488;DHT22;32202;48.780;9.204;2022-12-29T03:15:46;11.00;75.40
46488;DHT22;32202;48.780;9.204;2022-12-29T03:21:18;10.90;75.90
46488;DHT22;32202;48.780;9.204;2022-12-29T03:23:46;10.90;75.80
46488;DHT22;32202;48.780;9.204;2022-12-29T03:26:14;10.90;75.80
46488;DHT22;32202;48.780;9.204;2022-12-29T03:28:46;11.00;75.50
46488;DHT22;32202;48.780;9.204;2022-12-29T03:31:14;11.00;75.30
46488;DHT22;32202;48.780;9.204;2022-12-29T03:33:41;11.10;75.20
46488;DHT22;32202;48.780;9.204;2022-12-29T03:36:13;11.10;75.30
46488;DHT22;32202;48.780;9.204;2022-12-29T03:38:52;11.20;74.90
46488;DHT22;32202;48.780;9.204;2022-12-29T03:41:23;11.10;74.90
46488;DHT22;32202;48.780;9.204;2022-12-29T03:43:49;11.20;74.70
46488;DHT22;32202;48.780;9.204;2022-12-29T03:46:15;11.30;74.70
46488;DHT22;32202;48.780;9.204;2022-12-29T03:48:40;11.30;75.20
46488;DHT22;32202;48.780;9.204;2022-12-29T03:51:06;11.30;74.50
46488;DHT22;32202;48.780;9.204;2022-12-29T03:53:32;11.40;74.40
46488;DHT22;32202;48.780;9.204;2022-12-29T03:55:57;11.40;74.50
46488;DHT22;32202;48.780;9.204;2022-12-29T03:58:23;11.40;74.70
46488;DHT22;32202;48.780;9.204;2022-12-29T04:00:48;11.40;74.90
46488;DHT22;32202;48.780;9.204;2022-12-29T04:03:14;11.40;75.10
46488;DHT22;32202;48.780;9.204;2022-12-29T04:05:39;11.40;75.40
46488;DHT22;32202;48.780;9.204;2022-12-29T04:08:05;11.40;75.60
46488;DHT22;32202;48.780;9.204;2022-12-29T04:10:31;11.40;75.80
46488;DHT22;32202;48.780;9.204;2022-12-29T04:12:56;11.40;75.90
46488;DHT22;32202;48.780;9.204;2022-12-29T04:15:22;11.20;76.00
46488;DHT22;32202;48.780;9.204;2022-12-29T04:17:49;11.30;76.10
46488;DHT22;32202;48.780;9.204;2022-12-29T04:20:15;11.20;76.20
46488;DHT22;32202;48.780;9.204;2022-12-29T04:23:00;11.10;77.00
46488;DHT22;32202;48.780;9.204;2022-12-29T04:25:26;11.10;77.40
46488;DHT22;32202;48.780;9.204;2022-12-29T04:27:51;11.10;77.80
46488;DHT22;32202;48.780;9.204;2022-12-29T04:30:17;11.00;78.10
46488;DHT22;32202;48.780;9.204;2022-12-29T04:32:42;11.00;78.30
46488;DHT22;32202;48.780;9.204;2022-12-29T04:35:08;11.00;78.80
46488;DHT22;32202;48.780;9.204;2022-12-29T04:37:33;10.90;79.30
46488;DHT22;32202;48.780;9.204;2022-12-29T04:39:59;11.00;79.50
46488;DHT22;32202;48.780;9.204;2022-12-29T04:42:25;11.00;79.80
46488;DHT22;32202;48.780;9.204;2022-12-29T04:44:50;11.00;80.00
46488;DHT22;32202;48.780;9.204;2022-12-29T04:47:16;11.00;80.50
46488;DHT22;32202;48.780;9.204;2022-12-29T04:49:41;11.00;80.80
46488;DHT22;32202;48.780;9.204;2022-12-29T04:52:07;11.00;80.90
46488;DHT22;32202;48.780;9.204;2022-12-29T04:54:33;11.10;81.20
46488;DHT22;32202;48.780;9.204;2022-12-29T04:56:59;11.00;81.30
46488;DHT22;32202;48.780;9.204;2022-12-29T04:59:24;10.90;81.90
46488;DHT22;32202;48.780;9.204;2022-12-29T05:01:50;10.90;82.10
46488;DHT22;32202;48.780;9.204;2022-12-29T05:04:15;10.90;82.30
46488;DHT22;32202;48.780;9.204;2022-12-29T05:06:41;10.90;82.50
46488;DHT22;32202;48.780;9.204;2022-12-29T05:09:07;10.90;82.50
46488;DHT22;32202;48.780;9.204;2022-12-29T05:11:32;10.90;83.00
46488;DHT22;32202;48.780;9.204;2022-12-29T05:13:58;10.90;83.20
46488;DHT22;32202;48.780;9.204;2022-12-29T05:16:26;10.80;83.60
46488;DHT22;32202;48.780;9.204;2022-12-29T05:18:52;10.90;83.70
46488;DHT22;32202;48.780;9.204;2022-12-29T05:21:17;10.90;83.50
46488;DHT22;32202;48.780;9.204;2022-12-29T05:23:43;10.90;83.40
46488;DHT22;32202;48.780;9.204;2022-12-29T05:26:09;11.00;83.50
46488;DHT22;32202;48.780;9.204;2022-12-29T05:28:34;11.00;83.40
46488;DHT22;32202;48.780;9.204;2022-12-29T05:31:00;11.00;83.10
46488;DHT22;32202;48.780;9.204;2022-12-29T05:33:25;11.00;83.10
46488;DHT22;32202;48.780;9.204;2022-12-29T05:35:51;11.00;83.20
46488;DHT22;32202;48.780;9.204;2022-12-29T05:38:16;11.00;83.40
46488;DHT22;32202;48.780;9.204;2022-12-29T05:40:43;11.00;83.50
46488;DHT22;32202;48.780;9.204;2022-12-29T05:43:08;11.00;83.60
46488;DHT22;32202;48.780;9.204;2022-12-29T05:45:35;11.00;83.50
46488;DHT22;32202;48.780;9.204;2022-12-29T05:48:01;11.00;83.50
46488;DHT22;32202;48.780;9.204;2022-12-29T05:50:27;11.00;83.70
46488;DHT22;32202;48.780;9.204;2022-12-29T05:52:52;11.00;83.50
46488;DHT22;32202;48.780;9.204;2022-12-29T05:55:18;11.10;83.20
46488;DHT22;32202;48.780;9.204;2022-12-29T05:57:44;11.10;82.70
46488;DHT22;32202;48.780;9.204;2022-12-29T06:00:10;11.10;82.60
46488;DHT22;32202;48.780;9.204;2022-12-29T06:02:35;11.20;82.20
46488;DHT22;32202;48.780;9.204;2022-12-29T06:05:01;11.20;82.00
46488;DHT22;32202;48.780;9.204;2022-12-29T06:07:26;11.30;81.80
46488;DHT22;32202;48.780;9.204;2022-12-29T06:09:52;11.30;81.40
46488;DHT22;32202;48.780;9.204;2022-12-29T06:12:18;11.30;81.40
46488;DHT22;32202;48.780;9.204;2022-12-29T06:14:43;11.30;81.00
46488;DHT22;32202;48.780;9.204;2022-12-29T06:17:09;11.30;80.90
46488;DHT22;32202;48.780;9.204;2022-12-29T06:19:35;11.30;80.80
46488;DHT22;32202;48.780;9.204;2022-12-29T06:22:00;11.20;80.90
46488;DHT22;32202;48.780;9.204;2022-12-29T06:24:26;11.20;80.80
46488;DHT22;32202;48.780;9.204;2022-12-29T06:26:51;11.20;80.60
46488;DHT22;32202;48.780;9.204;2022-12-29T06:29:17;11.20;80.80
46488;DHT22;32202;48.780;9.204;2022-12-29T06:31:44;11.20;80.90
46488;DHT22;32202;48.780;9.204;2022-12-29T06:34:11;11.10;80.90
46488;DHT22;32202;48.780;9.204;2022-12-29T06:36:37;11.00;81.00
46488;DHT22;32202;48.780;9.204;2022-12-29T06:39:03;11.00;81.20
46488;DHT22;32202;48.780;9.204;2022-12-29T06:41:28;10.90;81.20
46488;DHT22;32202;48.780;9.204;2022-12-29T06:43:54;10.90;80.90
46488;DHT22;32202;48.780;9.204;2022-12-29T06:46:19;10.80;81.10
46488;DHT22;32202;48.780;9.204;2022-12-29T06:48:45;10.80;81.10
46488;DHT22;32202;48.780;9.204;2022-12-29T06:51:10;10.70;81.10
46488;DHT22;32202;48.780;9.204;2022-12-29T06:53:36;10.70;81.70
46488;DHT22;32202;48.780;9.204;2022-12-29T06:56:02;10.60;81.50
46488;DHT22;32202;48.780;9.204;2022-12-29T06:58:27;10.70;81.00
46488;DHT22;32202;48.780;9.204;2022-12-29T07:00:53;10.70;80.90
46488;DHT22;32202;48.780;9.204;2022-12-29T07:03:18;10.80;80.20
46488;DHT22;32202;48.780;9.204;2022-12-29T07:05:44;10.70;79.90
46488;DHT22;32202;48.780;9.204;2022-12-29T07:08:09;10.80;79.70
46488;DHT22;32202;48.780;9.204;2022-12-29T07:10:35;10.80;79.50
46488;DHT22;32202;48.780;9.204;2022-12-29T07:13:01;10.70;79.40
46488;DHT22;32202;48.780;9.204;2022-12-29T07:15:26;10.70;79.50
46488;DHT22;32202;48.780;9.204;2022-12-29T07:17:52;10.70;79.60
46488;DHT22;32202;48.780;9.204;2022-12-29T07:20:17;10.60;79.90
46488;DHT22;32202;48.780;9.204;2022-12-29T07:22:43;10.60;79.90
46488;DHT22;32202;48.780;9.204;2022-12-29T07:25:09;10.60;80.00
46488;DHT22;32202;48.780;9.204;2022-12-29T07:27:34;10.50;80.40
46488;DHT22;32202;48.780;9.204;2022-12-29T07:30:00;10.50;80.80
46488;DHT22;32202;48.780;9.204;2022-12-29T07:32:25;10.50;80.80
46488;DHT22;32202;48.780;9.204;2022-12-29T07:34:51;10.40;81.00
46488;DHT22;32202;48.780;9.204;2022-12-29T07:37:16;10.40;81.20
46488;DHT22;32202;48.780;9.204;2022-12-29T07:39:42;10.40;81.40
46488;DHT22;32202;48.780;9.204;2022-12-29T07:42:08;10.40;81.50
46488;DHT22;32202;48.780;9.204;2022-12-29T07:44:34;10.50;81.50
46488;DHT22;32202;48.780;9.204;2022-12-29T07:46:59;10.50;81.40
46488;DHT22;32202;48.780;9.204;2022-12-29T07:49:25;10.60;81.30
46488;DHT22;32202;48.780;9.204;2022-12-29T07:51:51;10.60;81.10
46488;DHT22;32202;48.780;9.204;2022-12-29T07:54:16;10.70;81.10
46488;DHT22;32202;48.780;9.204;2022-12-29T07:56:45;10.80;80.70
46488;DHT22;32202;48.780;9.204;2022-12-29T07:59:11;10.90;80.50
46488;DHT22;32202;48.780;9.204;2022-12-29T08:01:37;10.90;80.20
46488;DHT22;32202;48.780;9.204;2022-12-29T08:04:03;11.00;80.00
46488;DHT22;32202;48.780;9.204;2022-12-29T08:06:29;11.00;79.70
46488;DHT22;32202;48.780;9.204;2022-12-29T08:08:56;11.10;79.60
46488;DHT22;32202;48.780;9.204;2022-12-29T08:11:22;11.10;79.50
46488;DHT22;32202;48.780;9.204;2022-12-29T08:13:48;11.20;79.30
46488;DHT22;32202;48.780;9.204;2022-12-29T08:16:14;11.20;79.40
46488;DHT22;32202;48.780;9.204;2022-12-29T08:18:39;11.30;79.10
46488;DHT22;32202;48.780;9.204;2022-12-29T08:21:05;11.40;78.70
46488;DHT22;32202;48.780;9.204;2022-12-29T08:23:31;11.40;78.50
46488;DHT22;32202;48.780;9.204;2022-12-29T08:25:58;11.40;78.30
46488;DHT22;32202;48.780;9.204;2022-12-29T08:28:24;11.50;78.40
46488;DHT22;32202;48.780;9.204;2022-12-29T08:30:49;11.50;78.40
46488;DHT22;32202;48.780;9.204;2022-12-29T08:33:15;11.50;78.10
46488;DHT22;32202;48.780;9.204;2022-12-29T08:35:40;11.60;78.10
46488;DHT22;32202;48.780;9.204;2022-12-29T08:38:06;11.60;78.20
46488;DHT22;32202;48.780;9.204;2022-12-29T08:40:31;11.60;78.10
46488;DHT22;32202;48.780;9.204;2022-12-29T08:42:57;11.60;78.20
46488;DHT22;32202;48.780;9.204;2022-12-29T08:45:23;11.70;77.80
46488;DHT22;32202;48.780;9.204;2022-12-29T08:47:48;11.80;77.60
46488;DHT22;32202;48.780;9.204;2022-12-29T08:50:14;11.80;77.20
46488;DHT22;32202;48.780;9.204;2022-12-29T08:52:39;11.90;77.00
46488;DHT22;32202;48.780;9.204;2022-12-29T08:55:05;11.90;77.10
46488;DHT22;32202;48.780;9.204;2022-12-29T08:57:31;11.90;76.80
46488;DHT22;32202;48.780;9.204;2022-12-29T08:59:56;12.00;76.50
46488;DHT22;32202;48.780;9.204;2022-12-29T09:02:22;12.00;76.30
46488;DHT22;32202;48.780;9.204;2022-12-29T09:04:47;12.00;75.90
46488;DHT22;32202;48.780;9.204;2022-12-29T09:07:13;12.10;76.10
46488;DHT22;32202;48.780;9.204;2022-12-29T09:09:38;12.10;75.50
46488;DHT22;32202;48.780;9.204;2022-12-29T09:12:04;12.10;75.70
46488;DHT22;32202;48.780;9.204;2022-12-29T09:14:30;12.20;75.50
46488;DHT22;32202;48.780;9.204;2022-12-29T09:16:56;12.20;75.30
46488;DHT22;32202;48.780;9.204;2022-12-29T09:19:40;12.30;74.90
46488;DHT22;32202;48.780;9.204;2022-12-29T09:22:06;12.40;74.80
46488;DHT22;32202;48.780;9.204;2022-12-29T09:24:31;12.40;74.50
46488;DHT22;32202;48.780;9.204;2022-12-29T09:26:57;12.40;74.20
46488;DHT22;32202;48.780;9.204;2022-12-29T09:29:22;12.40;74.20
46488;DHT22;32202;48.780;9.204;2022-12-29T09:31:48;12.50;73.60
46488;DHT22;32202;48.780;9.204;2022-12-29T09:34:14;12.50;73.70
46488;DHT22;32202;48.780;9.204;2022-12-29T09:36:40;12.50;73.40
46488;DHT22;32202;48.780;9.204;2022-12-29T09:39:06;12.60;73.40
46488;DHT22;32202;48.780;9.204;2022-12-29T09:44:30;12.70;72.80
46488;DHT22;32202;48.780;9.204;2022-12-29T09:46:57;12.80;72.90
46488;DHT22;32202;48.780;9.204;2022-12-29T09:49:44;12.80;72.70
46488;DHT22;32202;48.780;9.204;2022-12-29T09:52:35;12.90;72.40
46488;DHT22;32202;48.780;9.204;2022-12-29T09:57:46;12.90;72.20
46488;DHT22;32202;48.780;9.204;2022-12-29T10:00:16;13.10;71.70
46488;DHT22;32202;48.780;9.204;2022-12-29T10:02:59;13.40;70.90
46488;DHT22;32202;48.780;9.204;2022-12-29T10:17:24;13.30;71.30
46488;DHT22;32202;48.780;9.204;2022-12-29T10:20:05;13.30;71.50
46488;DHT22;32202;48.780;9.204;2022-12-29T10:22:46;13.30;71.60
46488;DHT22;32202;48.780;9.204;2022-12-29T10:25:20;13.30;71.50
46488;DHT22;32202;48.780;9.204;2022-12-29T10:27:48;13.30;71.60
46488;DHT22;32202;48.780;9.204;2022-12-29T10:30:14;13.40;71.60
46488;DHT22;32202;48.780;9.204;2022-12-29T10:32:47;13.30;71.80
46488;DHT22;32202;48.780;9.204;2022-12-29T10:35:22;13.40;71.60
46488;DHT22;32202;48.780;9.204;2022-12-29T10:37:49;13.40;71.80
46488;DHT22;32202;48.780;9.204;2022-12-29T10:42:56;13.60;71.70
46488;DHT22;32202;48.780;9.204;2022-12-29T10:45:26;13.80;71.10
46488;DHT22;32202;48.780;9.204;2022-12-29T10:48:04;14.40;70.30
46488;DHT22;32202;48.780;9.204;2022-12-29T10:50:31;16.00;64.80
46488;DHT22;32202;48.780;9.204;2022-12-29T10:53:00;16.70;62.50
46488;DHT22;32202;48.780;9.204;2022-12-29T10:55:32;16.90;61.90
46488;DHT22;32202;48.780;9.204;2022-12-29T10:58:02;17.60;60.80
46488;DHT22;32202;48.780;9.204;2022-12-29T11:00:30;19.60;56.10
46488;DHT22;32202;48.780;9.204;2022-12-29T11:06:24;23.90;45.90
46488;DHT22;32202;48.780;9.204;2022-12-29T11:08:57;23.20;46.20
46488;DHT22;32202;48.780;9.204;2022-12-29T11:11:32;22.10;47.60
46488;DHT22;32202;48.780;9.204;2022-12-29T11:14:17;21.00;49.30
46488;DHT22;32202;48.780;9.204;2022-12-29T11:16:43;19.50;52.00
46488;DHT22;32202;48.780;9.204;2022-12-29T11:19:27;18.20;54.60
46488;DHT22;32202;48.780;9.204;2022-12-29T11:21:54;17.30;57.00
46488;DHT22;32202;48.780;9.204;2022-12-29T11:24:29;16.80;58.40
46488;DHT22;32202;48.780;9.204;2022-12-29T11:27:18;16.50;59.60
46488;DHT22;32202;48.780;9.204;2022-12-29T11:29:46;16.20;60.30
46488;DHT22;32202;48.780;9.204;2022-12-29T11:34:45;15.70;61.60
46488;DHT22;32202;48.780;9.204;2022-12-29T11:39:58;15.40;62.80
46488;DHT22;32202;48.780;9.204;2022-12-29T11:42:37;15.30;63.10
46488;DHT22;32202;48.780;9.204;2022-12-29T11:45:06;15.20;64.10
46488;DHT22;32202;48.780;9.204;2022-12-29T11:47:32;15.00;65.60
46488;DHT22;32202;48.780;9.204;2022-12-29T11:50:07;14.90;67.40
46488;DHT22;32202;48.780;9.204;2022-12-29T11:52:36;15.80;67.20
46488;DHT22;32202;48.780;9.204;2022-12-29T11:55:06;17.30;63.80
46488;DHT22;32202;48.780;9.204;2022-12-29T11:57:41;17.70;62.60
46488;DHT22;32202;48.780;9.204;2022-12-29T12:00:19;17.40;62.00
46488;DHT22;32202;48.780;9.204;2022-12-29T12:02:54;16.70;63.20
46488;DHT22;32202;48.780;9.204;2022-12-29T12:05:33;16.00;65.90
46488;DHT22;32202;48.780;9.204;2022-12-29T12:08:13;15.60;68.70
46488;DHT22;32202;48.780;9.204;2022-12-29T12:10:44;15.20;69.80
46488;DHT22;32202;48.780;9.204;2022-12-29T12:13:29;14.90;71.10
46488;DHT22;32202;48.780;9.204;2022-12-29T12:16:32;14.80;72.30
46488;DHT22;32202;48.780;9.204;2022-12-29T12:19:32;14.70;72.70
46488;DHT22;32202;48.780;9.204;2022-12-29T12:25:18;14.60;73.40
46488;DHT22;32202;48.780;9.204;2022-12-29T12:28:24;14.40;72.70
46488;DHT22;32202;48.780;9.204;2022-12-29T12:30:55;14.30;73.50
46488;DHT22;32202;48.780;9.204;2022-12-29T12:33:24;14.30;73.00
46488;DHT22;32202;48.780;9.204;2022-12-29T12:38:47;14.40;72.70
46488;DHT22;32202;48.780;9.204;2022-12-29T12:44:12;14.60;71.90
46488;DHT22;32202;48.780;9.204;2022-12-29T12:47:12;14.50;73.00
46488;DHT22;32202;48.780;9.204;2022-12-29T12:49:57;14.40;74.50
46488;DHT22;32202;48.780;9.204;2022-12-29T13:09:52;14.90;75.40
46488;DHT22;32202;48.780;9.204;2022-12-29T13:15:20;14.90;75.50
46488;DHT22;32202;48.780;9.204;2022-12-29T13:21:33;14.60;77.00
46488;DHT22;32202;48.780;9.204;2022-12-29T13:30:13;14.50;76.30
46488;DHT22;32202;48.780;9.204;2022-12-29T13:33:17;14.30;77.00
46488;DHT22;32202;48.780;9.204;2022-12-29T13:36:08;14.10;78.10
46488;DHT22;32202;48.780;9.204;2022-12-29T13:38:42;13.90;78.80
46488;DHT22;32202;48.780;9.204;2022-12-29T13:41:27;13.80;79.40
46488;DHT22;32202;48.780;9.204;2022-12-29T13:43:55;13.80;79.90
46488;DHT22;32202;48.780;9.204;2022-12-29T13:46:26;13.70;80.30
46488;DHT22;32202;48.780;9.204;2022-12-29T13:48:57;13.60;80.80
46488;DHT22;32202;48.780;9.204;2022-12-29T13:51:24;13.50;81.40
46488;DHT22;32202;48.780;9.204;2022-12-29T13:54:11;13.50;81.60
46488;DHT22;32202;48.780;9.204;2022-12-29T13:56:51;13.60;81.50
46488;DHT22;32202;48.780;9.204;2022-12-29T14:01:58;13.50;82.80
46488;DHT22;32202;48.780;9.204;2022-12-29T14:04:27;13.50;82.90
46488;DHT22;32202;48.780;9.204;2022-12-29T14:07:05;13.40;83.10
46488;DHT22;32202;48.780;9.204;2022-12-29T14:10:13;13.40;83.50
46488;DHT22;32202;48.780;9.204;2022-12-29T14:12:51;13.60;83.40
46488;DHT22;32202;48.780;9.204;2022-12-29T14:15:25;13.60;83.10
46488;DHT22;32202;48.780;9.204;2022-12-29T14:18:13;13.70;83.20
46488;DHT22;32202;48.780;9.204;2022-12-29T14:20:54;13.80;82.80
46488;DHT22;32202;48.780;9.204;2022-12-29T14:23:41;13.70;82.70
46488;DHT22;32202;48.780;9.204;2022-12-29T14:28:35;13.50;83.70
46488;DHT22;32202;48.780;9.204;2022-12-29T14:31:02;13.30;84.70
46488;DHT22;32202;48.780;9.204;2022-12-29T14:33:31;13.10;85.70
46488;DHT22;32202;48.780;9.204;2022-12-29T14:36:18;13.10;86.00
46488;DHT22;32202;48.780;9.204;2022-12-29T14:38:45;13.10;86.40
46488;DHT22;32202;48.780;9.204;2022-12-29T14:41:17;13.10;87.00
46488;DHT22;32202;48.780;9.204;2022-12-29T14:47:00;12.90;87.10
46488;DHT22;32202;48.780;9.204;2022-12-29T14:49:31;12.80;87.80
46488;DHT22;32202;48.780;9.204;2022-12-29T14:52:26;12.70;88.40
46488;DHT22;32202;48.780;9.204;2022-12-29T14:57:41;12.60;89.30
46488;DHT22;32202;48.780;9.204;2022-12-29T15:00:22;12.70;89.60
46488;DHT22;32202;48.780;9.204;2022-12-29T15:03:32;12.70;89.80
46488;DHT22;32202;48.780;9.204;2022-12-29T15:08:13;12.50;90.10
46488;DHT22;32202;48.780;9.204;2022-12-29T15:10:53;12.50;90.20
46488;DHT22;32202;48.780;9.204;2022-12-29T15:13:35;12.50;90.20
46488;DHT22;32202;48.780;9.204;2022-12-29T15:16:01;12.40;90.30
46488;DHT22;32202;48.780;9.204;2022-12-29T15:18:29;12.40;90.30
46488;DHT22;32202;48.780;9.204;2022-12-29T15:21:04;12.30;90.10
46488;DHT22;32202;48.780;9.204;2022-12-29T15:23:32;12.30;90.30
46488;DHT22;32202;48.780;9.204;2022-12-29T15:26:00;12.30;90.30
46488;DHT22;32202;48.780;9.204;2022-12-29T15:28:27;12.20;90.30
46488;DHT22;32202;48.780;9.204;2022-12-29T15:30:55;12.20;90.20
46488;DHT22;32202;48.780;9.204;2022-12-29T15:33:23;12.20;90.10
46488;DHT22;32202;48.780;9.204;2022-12-29T15:35:52;12.20;90.10
46488;DHT22;32202;48.780;9.204;2022-12-29T15:38:28;12.20;90.10
46488;DHT22;32202;48.780;9.204;2022-12-29T15:40:56;12.20;90.10
46488;DHT22;32202;48.780;9.204;2022-12-29T15:45:55;12.10;90.10
46488;DHT22;32202;48.780;9.204;2022-12-29T15:48:24;12.10;90.10
46488;DHT22;32202;48.780;9.204;2022-12-29T15:50:51;12.10;90.10
46488;DHT22;32202;48.780;9.204;2022-12-29T15:56:06;12.10;90.20
46488;DHT22;32202;48.780;9.204;2022-12-29T15:58:43;12.30;90.40
46488;DHT22;32202;48.780;9.204;2022-12-29T16:01:18;12.30;90.40
46488;DHT22;32202;48.780;9.204;2022-12-29T16:03:44;12.30;90.80
46488;DHT22;32202;48.780;9.204;2022-12-29T16:06:32;12.40;91.60
46488;DHT22;32202;48.780;9.204;2022-12-29T16:09:04;12.40;92.20
46488;DHT22;32202;48.780;9.204;2022-12-29T16:11:37;12.30;92.00
46488;DHT22;32202;48.780;9.204;2022-12-29T16:14:08;12.10;92.40
46488;DHT22;32202;48.780;9.204;2022-12-29T16:16:38;12.10;92.90
46488;DHT22;32202;48.780;9.204;2022-12-29T16:19:17;11.90;92.80
46488;DHT22;32202;48.780;9.204;2022-12-29T16:21:44;11.80;93.20
46488;DHT22;32202;48.780;9.204;2022-12-29T16:24:19;11.80;93.90
46488;DHT22;32202;48.780;9.204;2022-12-29T16:27:09;11.70;94.20
46488;DHT22;32202;48.780;9.204;2022-12-29T16:29:40;11.70;94.50
46488;DHT22;32202;48.780;9.204;2022-12-29T16:34:50;11.50;95.00
46488;DHT22;32202;48.780;9.204;2022-12-29T16:37:29;11.50;95.40
46488;DHT22;32202;48.780;9.204;2022-12-29T16:39:55;11.50;95.80
46488;DHT22;32202;48.780;9.204;2022-12-29T16:50:19;11.50;97.00
46488;DHT22;32202;48.780;9.204;2022-12-29T16:52:49;11.50;96.70
46488;DHT22;32202;48.780;9.204;2022-12-29T16:55:19;11.40;97.00
46488;DHT22;32202;48.780;9.204;2022-12-29T16:57:48;11.50;97.70
46488;DHT22;32202;48.780;9.204;2022-12-29T17:00:19;11.50;98.20
46488;DHT22;32202;48.780;9.204;2022-12-29T17:02:46;11.50;98.50
46488;DHT22;32202;48.780;9.204;2022-12-29T17:05:17;11.50;99.10
46488;DHT22;32202;48.780;9.204;2022-12-29T17:07:43;11.50;99.60
46488;DHT22;32202;48.780;9.204;2022-12-29T17:10:09;11.50;99.90
46488;DHT22;32202;48.780;9.204;2022-12-29T17:12:36;11.40;99.90
46488;DHT22;32202;48.780;9.204;2022-12-29T17:15:10;11.30;99.90
46488;DHT22;32202;48.780;9.204;2022-12-29T17:17:47;11.30;99.90
46488;DHT22;32202;48.780;9.204;2022-12-29T17:20:15;11.30;99.90
46488;DHT22;32202;48.780;9.204;2022-12-29T17:22:41;11.20;99.90
46488;DHT22;32202;48.780;9.204;2022-12-29T17:25:12;11.20;99.90
46488;DHT22;32202;48.780;9.204;2022-12-29T17:27:41;11.10;99.90
46488;DHT22;32202;48.780;9.204;2022-12-29T17:30:13;11.10;99.90
46488;DHT22;32202;48.780;9.204;2022-12-29T17:32:40;11.10;99.90
46488;DHT22;32202;48.780;9.204;2022-12-29T17:35:18;11.10;99.90
46488;DHT22;32202;48.780;9.204;2022-12-29T17:37:44;11.10;99.90
46488;DHT22;32202;48.780;9.204;2022-12-29T17:40:17;11.20;99.90
46488;DHT22;32202;48.780;9.204;2022-12-29T17:42:44;11.10;99.90
46488;DHT22;32202;48.780;9.204;2022-12-29T17:45:20;11.10;99.90
46488;DHT22;32202;48.780;9.204;2022-12-29T17:47:46;11.10;99.90
46488;DHT22;32202;48.780;9.204;2022-12-29T17:50:13;11.00;99.90
46488;DHT22;32202;48.780;9.204;2022-12-29T17:52:40;11.00;99.90
46488;DHT22;32202;48.780;9.204;2022-12-29T17:55:08;11.00;99.90
46488;DHT22;32202;48.780;9.204;2022-12-29T17:57:38;11.00;99.90
46488;DHT22;32202;48.780;9.204;2022-12-29T18:00:04;11.00;99.90
46488;DHT22;32202;48.780;9.204;2022-12-29T18:02:31;11.00;99.90
46488;DHT22;32202;48.780;9.204;2022-12-29T18:04:57;10.90;99.90